Aérodrome :
LOGIN :

S'inscrire | Disclaimer

   EN    FR    IT 

 










Légende :    VFR   VFR Marginal   IFR   IFR Intensif   IFR Très Intensif
Visi : 
Plafond : 
>= 8 km
>= 3000ft
5 à 8 km
1000 à 3000 ft
1500m à 5 km
500 à 1000 ft
800 à 1500m
200 à 500 ft
< 800m
< 200 ft
Symboles :   Orages  Brouillard  Fortes neiges  Fortes précipitations  Vent > 20 kt
SIGMETs :   Divers  Orages  Givrage  Turbulence  Onde Orograph.  Cendres Volcan.






- Altitude de l'aérodrome : 1017 ft


LFSL - Brive Souillac

DERNIER METAR :
  • 200100Z AUTO 03013KT 9999 FEW042 03/M03 Q1035

METARs EXPIRÉS :
  • 200030Z AUTO 03012KT 360V060 9999 BKN039 03/M03 Q1036
  • 200000Z AUTO 03012KT 360V080 9999 BKN038 03/M03 Q1036
  • 192330Z AUTO 04007KT 350V090 9999 BKN037 03/M03 Q1036
  • 192300Z AUTO 04008KT 350V080 9999 SCT040 03/M03 Q1036
  • 192230Z AUTO 03010KT 340V080 9999 BKN039 03/M03 Q1036

TAF TAF LFSL
Valide du 19 à 18h jusqu'au 20 à 03h UTC


191700Z 1918/2003 02008KT 9999 SCT035
TEMPO 1918/1920 03012G24KT



MET'MAP, la Météo Aéronautique d'un coup d'oeil ! - Copyright ORBIFLY Décembre 2007 - Disclaimer

ORBIFLY MET'MAP TEAM :

Programmation & Développement : Alexandra Zaïnal
Sur une idée originale de : Baudouin d'Aumeries
Assistance à la programmation : Marc-Olivier Méhu
Soutien technique & logistique : Manuel Goepfert

Contact : metmap@orbifly.com




SOURCES & CREDITS :

   NOAA